createdAt,value
2023-02-25T00:02:12.701Z,94.00
2023-02-25T00:04:45.307Z,94.00
2023-02-25T00:07:14.469Z,94.10
2023-02-25T00:09:43.578Z,94.10
2023-02-25T00:12:12.749Z,94.00
2023-02-25T00:14:41.972Z,94.10
2023-02-25T00:17:11.138Z,94.10
2023-02-25T00:19:40.598Z,94.10
2023-02-25T00:22:09.751Z,94.00
2023-02-25T00:24:39.122Z,94.00
2023-02-25T00:27:08.220Z,94.00
2023-02-25T00:29:37.370Z,94.00
2023-02-25T00:32:07.050Z,93.90
2023-02-25T00:34:36.326Z,93.80
2023-02-25T00:37:06.031Z,93.70
2023-02-25T00:39:44.579Z,94.00
2023-02-25T00:42:20.136Z,93.60
2023-02-25T00:44:51.996Z,93.70
2023-02-25T00:47:22.493Z,93.60
2023-02-25T00:49:53.182Z,93.50
2023-02-25T00:52:22.495Z,93.50
2023-02-25T00:54:51.845Z,93.50
2023-02-25T00:57:20.950Z,93.30
2023-02-25T00:59:51.119Z,93.40
2023-02-25T01:02:20.413Z,93.30
2023-02-25T01:04:49.616Z,93.20
2023-02-25T01:07:18.728Z,93.20
2023-02-25T01:09:54.050Z,93.20
2023-02-25T01:12:27.940Z,93.10
2023-02-25T01:15:00.197Z,93.10
2023-02-25T01:17:32.212Z,93.10
2023-02-25T01:20:01.399Z,93.00
2023-02-25T01:22:30.557Z,92.80
2023-02-25T01:25:05.303Z,92.70
2023-02-25T01:27:37.792Z,92.70
2023-02-25T01:30:09.113Z,92.70
2023-02-25T01:32:38.826Z,92.50
2023-02-25T01:35:08.693Z,92.40
2023-02-25T01:37:38.155Z,92.40
2023-02-25T01:40:08.549Z,92.40
2023-02-25T01:42:37.685Z,92.10
2023-02-25T01:45:21.711Z,92.00
2023-02-25T01:48:06.877Z,91.80
2023-02-25T01:50:52.447Z,92.00
2023-02-25T01:53:31.757Z,91.50
2023-02-25T01:56:04.440Z,91.40
2023-02-25T01:58:35.813Z,91.50
2023-02-25T02:01:05.476Z,91.00
2023-02-25T02:03:37.371Z,90.80
2023-02-25T02:06:31.169Z,90.80
2023-02-25T02:09:01.977Z,90.80
2023-02-25T02:11:31.490Z,91.00
2023-02-25T02:14:04.616Z,91.10
2023-02-25T02:17:11.787Z,90.30
2023-02-25T02:20:21.734Z,90.30
2023-02-25T02:23:09.721Z,90.60
2023-02-25T02:26:15.125Z,90.20
2023-02-25T02:29:49.467Z,90.10
2023-02-25T02:32:52.288Z,90.20
2023-02-25T02:35:53.492Z,90.10
2023-02-25T02:38:42.111Z,89.30
2023-02-25T02:41:45.521Z,89.10
2023-02-25T02:44:53.273Z,88.70
2023-02-25T02:47:47.309Z,88.80
2023-02-25T02:50:41.636Z,88.50
2023-02-25T02:53:45.768Z,88.20
2023-02-25T02:56:19.592Z,88.00
2023-02-25T02:59:08.344Z,86.90
2023-02-25T03:01:58.312Z,86.60
2023-02-25T03:04:35.318Z,86.20
2023-02-25T03:07:11.594Z,86.00
2023-02-25T03:09:54.168Z,85.80
2023-02-25T03:12:23.823Z,85.20
2023-02-25T03:14:53.092Z,85.50
2023-02-25T03:17:33.073Z,85.30
2023-02-25T03:20:30.622Z,85.00
2023-02-25T03:23:11.141Z,84.90
2023-02-25T03:25:55.001Z,85.10
2023-02-25T03:28:36.580Z,84.90
2023-02-25T03:31:22.607Z,85.30
2023-02-25T03:33:59.451Z,85.20
2023-02-25T03:36:39.904Z,85.10
2023-02-25T03:39:26.343Z,84.10
2023-02-25T03:42:00.750Z,83.60
2023-02-25T03:44:39.533Z,82.60
2023-02-25T03:47:12.150Z,82.20
2023-02-25T03:50:12.219Z,82.60
2023-02-25T03:52:43.083Z,83.00
2023-02-25T03:55:15.713Z,82.30
2023-02-25T03:57:49.460Z,83.30
2023-02-25T04:00:27.908Z,81.60
2023-02-25T04:02:56.707Z,82.20
2023-02-25T04:05:30.183Z,81.80
2023-02-25T04:08:01.124Z,80.80
2023-02-25T04:10:30.348Z,80.20
2023-02-25T04:12:59.755Z,81.00
2023-02-25T04:15:30.395Z,80.20
2023-02-25T04:17:59.585Z,79.80
2023-02-25T04:20:30.814Z,79.70
2023-02-25T04:23:00.931Z,80.40
2023-02-25T04:25:30.398Z,79.70
2023-02-25T04:27:59.457Z,79.00
2023-02-25T04:30:28.697Z,78.60
2023-02-25T04:32:58.205Z,79.30
2023-02-25T04:35:27.463Z,79.10
2023-02-25T04:37:56.648Z,78.50
2023-02-25T04:40:26.366Z,78.80
2023-02-25T04:42:55.541Z,78.40
2023-02-25T04:45:27.196Z,78.50
2023-02-25T04:48:00.012Z,77.40
2023-02-25T04:50:29.224Z,77.70
2023-02-25T04:53:00.650Z,77.50
2023-02-25T04:55:30.347Z,76.70
2023-02-25T04:57:59.822Z,76.30
2023-02-25T05:00:29.115Z,75.70
2023-02-25T05:02:59.620Z,75.30
2023-02-25T05:05:28.745Z,75.60
2023-02-25T05:07:57.828Z,75.20
2023-02-25T05:10:26.984Z,75.10
2023-02-25T05:12:56.169Z,73.90
2023-02-25T05:15:26.386Z,73.30
2023-02-25T05:17:55.607Z,73.30
2023-02-25T05:20:24.873Z,73.70
2023-02-25T05:22:54.122Z,73.80
2023-02-25T05:25:23.461Z,73.40
2023-02-25T05:27:52.573Z,72.10
2023-02-25T05:30:22.033Z,71.70
2023-02-25T05:32:51.890Z,71.40
2023-02-25T05:35:21.561Z,71.60
2023-02-25T05:37:50.951Z,70.00
2023-02-25T05:40:20.698Z,69.70
2023-02-25T05:42:50.628Z,70.60
2023-02-25T05:45:19.920Z,70.00
2023-02-25T05:47:49.118Z,69.80
2023-02-25T05:50:18.497Z,68.70
2023-02-25T05:52:47.920Z,69.40
2023-02-25T05:55:20.051Z,69.40
2023-02-25T05:57:49.221Z,68.20
2023-02-25T06:00:22.590Z,69.00
2023-02-25T06:02:51.848Z,68.80
2023-02-25T06:05:21.178Z,68.20
2023-02-25T06:07:50.402Z,68.50
2023-02-25T06:10:20.135Z,68.10
2023-02-25T06:12:49.325Z,68.10
2023-02-25T06:15:18.632Z,67.40
2023-02-25T06:17:47.861Z,67.90
2023-02-25T06:20:18.806Z,67.70
2023-02-25T06:22:48.047Z,67.70
2023-02-25T06:25:17.286Z,67.50
2023-02-25T06:27:46.612Z,67.10
2023-02-25T06:30:16.349Z,67.40
2023-02-25T06:32:45.933Z,67.70
2023-02-25T06:35:15.682Z,67.10
2023-02-25T06:37:45.151Z,66.70
2023-02-25T06:40:16.144Z,65.70
2023-02-25T06:42:45.438Z,66.40
2023-02-25T06:45:14.775Z,65.70
2023-02-25T06:47:44.159Z,66.90
2023-02-25T06:50:14.457Z,66.60
2023-02-25T06:52:43.693Z,65.10
2023-02-25T06:55:13.088Z,66.70
2023-02-25T06:57:42.292Z,65.80
2023-02-25T07:00:12.670Z,64.80
2023-02-25T07:02:41.911Z,65.10
2023-02-25T07:05:11.445Z,65.60
2023-02-25T07:07:40.755Z,66.10
2023-02-25T07:10:12.556Z,66.40
2023-02-25T07:12:41.850Z,65.60
2023-02-25T07:15:11.760Z,65.30
2023-02-25T07:17:40.963Z,65.00
2023-02-25T07:20:11.369Z,65.70
2023-02-25T07:22:43.144Z,65.90
2023-02-25T07:25:13.372Z,64.50
2023-02-25T07:27:45.013Z,63.60
2023-02-25T07:30:15.172Z,63.80
2023-02-25T07:32:45.006Z,63.80
2023-02-25T07:35:14.422Z,64.00
2023-02-25T07:37:43.544Z,64.50
2023-02-25T07:40:13.910Z,64.40
2023-02-25T07:42:44.155Z,63.40
2023-02-25T07:45:13.919Z,63.60
2023-02-25T07:47:43.139Z,63.50
2023-02-25T07:50:13.729Z,64.30
2023-02-25T07:52:43.203Z,64.20
2023-02-25T07:55:12.888Z,64.60
2023-02-25T07:57:42.028Z,63.30
2023-02-25T08:00:12.151Z,62.70
2023-02-25T08:02:41.482Z,63.20
2023-02-25T08:05:11.245Z,63.60
2023-02-25T08:07:40.470Z,64.30
2023-02-25T08:10:10.412Z,64.30
2023-02-25T08:12:39.559Z,63.40
2023-02-25T08:15:09.399Z,63.30
2023-02-25T08:17:38.556Z,62.90
2023-02-25T08:20:10.001Z,62.70
2023-02-25T08:22:39.720Z,63.10
2023-02-25T08:25:09.142Z,62.70
2023-02-25T08:27:38.931Z,63.80
2023-02-25T08:30:11.347Z,63.90
2023-02-25T08:32:42.963Z,63.30
2023-02-25T08:35:12.426Z,63.30
2023-02-25T08:37:41.699Z,63.50
2023-02-25T08:40:12.025Z,63.70
2023-02-25T08:42:41.572Z,62.40
2023-02-25T08:45:11.481Z,62.60
2023-02-25T08:47:40.745Z,63.10
2023-02-25T08:50:11.329Z,63.10
2023-02-25T08:52:42.179Z,63.30
2023-02-25T08:55:16.218Z,63.50
2023-02-25T08:57:45.930Z,62.60
2023-02-25T09:00:16.637Z,63.10
2023-02-25T09:02:46.124Z,63.10
2023-02-25T09:05:15.554Z,63.40
2023-02-25T09:07:44.777Z,63.50
2023-02-25T09:10:14.837Z,63.30
2023-02-25T09:12:45.282Z,63.20
2023-02-25T09:15:15.488Z,62.70
2023-02-25T09:17:44.633Z,62.60
2023-02-25T09:20:13.880Z,62.40
2023-02-25T09:22:43.058Z,62.30
2023-02-25T09:25:12.291Z,63.00
2023-02-25T09:27:41.425Z,63.40
2023-02-25T09:30:11.653Z,63.30
2023-02-25T09:32:40.996Z,62.60
2023-02-25T09:35:15.092Z,62.80
2023-02-25T09:37:44.299Z,63.00
2023-02-25T09:40:20.266Z,63.30
2023-02-25T09:43:13.292Z,63.20
2023-02-25T09:45:48.247Z,62.90
2023-02-25T09:48:31.311Z,63.80
2023-02-25T09:51:20.737Z,64.00
2023-02-25T09:54:27.342Z,64.10
2023-02-25T09:57:00.288Z,64.40
2023-02-25T09:59:32.080Z,64.30
2023-02-25T10:02:40.063Z,64.00
2023-02-25T10:05:23.707Z,64.20
2023-02-25T10:08:09.371Z,65.30
2023-02-25T10:11:16.268Z,64.70
2023-02-25T10:14:19.898Z,64.70
2023-02-25T10:17:07.496Z,64.80
2023-02-25T10:19:53.893Z,65.10
2023-02-25T10:23:02.627Z,65.30
2023-02-25T10:25:38.933Z,65.60
2023-02-25T10:28:18.594Z,65.80
2023-02-25T10:31:05.160Z,65.80
2023-02-25T10:33:42.492Z,66.20
2023-02-25T10:36:23.917Z,66.20
2023-02-25T10:38:55.565Z,66.10
2023-02-25T10:41:30.840Z,66.30
2023-02-25T10:44:00.367Z,66.30
2023-02-25T10:46:51.699Z,66.40
2023-02-25T10:49:27.907Z,66.60
2023-02-25T10:52:16.809Z,66.90
2023-02-25T10:54:55.826Z,66.90
2023-02-25T10:57:43.842Z,67.30
2023-02-25T11:00:37.413Z,67.50
2023-02-25T11:03:07.132Z,68.10
2023-02-25T11:05:42.457Z,68.00
2023-02-25T11:08:33.502Z,68.20
2023-02-25T11:11:33.221Z,68.40
2023-02-25T11:14:10.585Z,68.60
2023-02-25T11:16:43.715Z,68.80
2023-02-25T11:19:27.476Z,69.20
2023-02-25T11:21:58.881Z,69.50
2023-02-25T11:24:34.514Z,69.90
2023-02-25T11:27:07.360Z,70.20
2023-02-25T11:29:44.744Z,70.50
2023-02-25T11:32:21.632Z,70.60
2023-02-25T11:35:01.151Z,70.80
2023-02-25T11:37:43.268Z,71.10
2023-02-25T11:40:42.634Z,71.40
2023-02-25T11:43:28.819Z,71.60
2023-02-25T11:46:07.851Z,72.40
2023-02-25T11:49:14.598Z,72.00
2023-02-25T11:52:22.446Z,72.30
2023-02-25T11:55:43.870Z,72.30
2023-02-25T11:58:29.077Z,72.80
2023-02-25T12:01:29.483Z,72.80
2023-02-25T12:04:13.537Z,72.80
2023-02-25T12:07:15.625Z,72.80
2023-02-25T12:10:40.647Z,73.10
2023-02-25T12:14:16.550Z,73.10
2023-02-25T12:17:24.760Z,73.30
2023-02-25T12:20:18.867Z,73.50
2023-02-25T12:23:40.465Z,73.60
2023-02-25T12:26:29.777Z,73.70
2023-02-25T12:29:56.788Z,73.70
2023-02-25T12:32:58.784Z,73.80
2023-02-25T12:35:52.110Z,73.80
2023-02-25T12:38:35.764Z,74.90
2023-02-25T12:41:48.810Z,73.90
2023-02-25T12:44:52.510Z,74.10
2023-02-25T12:47:49.335Z,74.10
2023-02-25T12:51:07.029Z,73.90
2023-02-25T12:54:04.215Z,74.00
2023-02-25T12:57:15.488Z,74.20
2023-02-25T13:00:12.093Z,74.20
2023-02-25T13:03:04.956Z,74.00
2023-02-25T13:06:08.849Z,74.00
2023-02-25T13:08:46.369Z,74.60
2023-02-25T13:12:11.505Z,74.20
2023-02-25T13:15:20.635Z,74.60
2023-02-25T13:18:17.976Z,74.60
2023-02-25T13:21:18.344Z,74.60
2023-02-25T13:24:22.994Z,74.60
2023-02-25T13:28:05.999Z,74.90
2023-02-25T13:30:55.579Z,75.30
2023-02-25T13:33:40.087Z,75.50
2023-02-25T13:37:11.745Z,75.40
2023-02-25T13:40:18.127Z,75.70
2023-02-25T13:43:05.393Z,75.80
2023-02-25T13:46:26.136Z,76.00
2023-02-25T13:49:47.684Z,76.00
2023-02-25T13:53:09.249Z,76.20
2023-02-25T13:56:49.969Z,76.80
2023-02-25T13:59:44.197Z,76.30
2023-02-25T14:02:45.710Z,76.80
2023-02-25T14:06:04.935Z,76.90
2023-02-25T14:09:12.321Z,77.00
2023-02-25T14:12:34.388Z,76.90
2023-02-25T14:15:21.463Z,76.80
2023-02-25T14:18:15.009Z,77.10
2023-02-25T14:21:38.011Z,77.10
2023-02-25T14:24:28.853Z,77.00
2023-02-25T14:27:29.287Z,77.30
2023-02-25T14:30:27.210Z,77.30
2023-02-25T14:33:39.584Z,77.70
2023-02-25T14:36:56.461Z,77.70
2023-02-25T14:39:48.713Z,77.80
2023-02-25T14:42:46.572Z,78.00
2023-02-25T14:45:45.629Z,78.30
2023-02-25T14:48:27.424Z,78.50
2023-02-25T14:51:41.320Z,78.50
2023-02-25T14:54:26.222Z,78.50
2023-02-25T14:57:26.122Z,78.80
2023-02-25T15:00:41.654Z,79.10
2023-02-25T15:03:37.233Z,79.00
2023-02-25T15:06:27.570Z,79.60
2023-02-25T15:09:29.826Z,79.60
2023-02-25T15:12:20.213Z,79.60
2023-02-25T15:15:00.131Z,80.30
2023-02-25T15:17:53.083Z,80.10
2023-02-25T15:20:43.218Z,80.20
2023-02-25T15:23:20.683Z,80.20
2023-02-25T15:26:26.381Z,80.40
2023-02-25T15:28:56.956Z,80.60
2023-02-25T15:31:35.502Z,80.80
2023-02-25T15:34:23.752Z,81.10
2023-02-25T15:37:24.106Z,79.70
2023-02-25T15:40:00.184Z,80.90
2023-02-25T15:42:55.496Z,81.60
2023-02-25T15:45:31.645Z,82.10
2023-02-25T15:48:09.646Z,82.00
2023-02-25T15:50:44.948Z,82.00
2023-02-25T15:53:24.274Z,81.80
2023-02-25T15:56:06.030Z,81.90
2023-02-25T15:58:35.156Z,81.50
2023-02-25T16:01:10.385Z,81.40
2023-02-25T16:03:41.128Z,81.70
2023-02-25T16:06:24.120Z,81.70
2023-02-25T16:08:58.691Z,81.90
2023-02-25T16:11:43.409Z,81.50
2023-02-25T16:14:24.325Z,81.90
2023-02-25T16:17:28.106Z,81.90
2023-02-25T16:20:31.330Z,82.40
2023-02-25T16:23:02.216Z,82.60
2023-02-25T16:25:56.527Z,82.50
2023-02-25T16:29:05.652Z,82.80
2023-02-25T16:31:48.539Z,82.70
2023-02-25T16:34:41.327Z,83.00
2023-02-25T16:37:28.442Z,82.80
2023-02-25T16:39:59.185Z,83.20
2023-02-25T16:42:33.453Z,82.90
2023-02-25T16:45:07.001Z,83.60
2023-02-25T16:47:40.347Z,83.40
2023-02-25T16:50:17.575Z,83.70
2023-02-25T16:52:51.657Z,84.00
2023-02-25T16:55:32.799Z,83.50
2023-02-25T16:58:16.314Z,83.70
2023-02-25T17:00:58.316Z,83.30
2023-02-25T17:03:33.904Z,83.70
2023-02-25T17:06:06.407Z,83.90
2023-02-25T17:08:37.037Z,83.80
2023-02-25T17:11:07.900Z,83.70
2023-02-25T17:13:42.770Z,83.40
2023-02-25T17:16:37.655Z,83.50
2023-02-25T17:19:17.228Z,83.80
2023-02-25T17:22:01.454Z,83.70
2023-02-25T17:24:34.501Z,83.50
2023-02-25T17:27:03.923Z,83.40
2023-02-25T17:29:38.302Z,83.70
2023-02-25T17:32:31.148Z,83.60
2023-02-25T17:35:06.839Z,83.60
2023-02-25T17:37:36.932Z,84.00
2023-02-25T17:40:09.742Z,84.00
2023-02-25T17:42:40.876Z,83.70
2023-02-25T17:45:46.877Z,84.00
2023-02-25T17:48:25.408Z,83.80
2023-02-25T17:51:02.689Z,84.20
2023-02-25T17:53:51.674Z,84.20
2023-02-25T17:56:25.519Z,84.20
2023-02-25T17:59:08.017Z,84.40
2023-02-25T18:02:00.163Z,84.30
2023-02-25T18:04:39.953Z,84.50
2023-02-25T18:07:33.676Z,84.50
2023-02-25T18:10:03.441Z,84.60
2023-02-25T18:12:35.558Z,84.50
2023-02-25T18:15:21.150Z,84.80
2023-02-25T18:18:02.370Z,84.40
2023-02-25T18:20:38.930Z,84.70
2023-02-25T18:23:22.160Z,84.60
2023-02-25T18:26:11.754Z,84.70
2023-02-25T18:28:40.984Z,84.40
2023-02-25T18:31:10.851Z,84.80
2023-02-25T18:33:40.766Z,84.70
2023-02-25T18:36:12.869Z,84.50
2023-02-25T18:38:42.659Z,84.70
2023-02-25T18:41:13.022Z,84.60
2023-02-25T18:43:43.733Z,84.60
2023-02-25T18:46:13.831Z,84.60
2023-02-25T18:48:42.957Z,84.70
2023-02-25T18:51:16.462Z,84.60
2023-02-25T18:53:45.594Z,84.80
2023-02-25T18:56:18.994Z,84.40
2023-02-25T18:58:48.132Z,84.60
2023-02-25T19:01:25.512Z,84.70
2023-02-25T19:04:00.394Z,84.70
2023-02-25T19:06:32.973Z,84.60
2023-02-25T19:09:02.602Z,84.70
2023-02-25T19:11:37.657Z,85.10
2023-02-25T19:14:08.939Z,85.70
2023-02-25T19:16:38.056Z,84.70
2023-02-25T19:19:07.175Z,85.00
2023-02-25T19:21:37.097Z,85.10
2023-02-25T19:24:07.292Z,85.30
2023-02-25T19:26:39.819Z,85.40
2023-02-25T19:29:09.114Z,85.70
2023-02-25T19:31:38.336Z,85.80
2023-02-25T19:34:07.544Z,86.00
2023-02-25T19:36:36.614Z,85.80
2023-02-25T19:39:06.394Z,86.10
2023-02-25T19:41:35.561Z,86.10
2023-02-25T19:44:04.690Z,86.00
2023-02-25T19:46:33.935Z,86.40
2023-02-25T19:49:03.046Z,86.20
2023-02-25T19:51:32.502Z,86.30
2023-02-25T19:54:01.621Z,86.40
2023-02-25T19:56:30.701Z,86.50
2023-02-25T19:59:00.500Z,86.70
2023-02-25T20:01:29.673Z,86.70
2023-02-25T20:03:58.797Z,87.00
2023-02-25T20:06:28.036Z,87.00
2023-02-25T20:08:57.072Z,86.90
2023-02-25T20:11:26.204Z,86.90
2023-02-25T20:13:55.983Z,86.80
2023-02-25T20:16:26.704Z,87.20
2023-02-25T20:18:58.523Z,87.20
2023-02-25T20:21:29.160Z,87.50
2023-02-25T20:24:00.574Z,87.40
2023-02-25T20:26:31.453Z,87.80
2023-02-25T20:29:01.393Z,87.70
2023-02-25T20:31:31.423Z,87.80
2023-02-25T20:34:05.365Z,87.90
2023-02-25T20:36:52.435Z,88.30
2023-02-25T20:39:55.941Z,88.30
2023-02-25T20:42:30.351Z,88.10
2023-02-25T20:45:01.732Z,88.50
2023-02-25T20:47:37.318Z,88.40
2023-02-25T20:50:10.213Z,88.90
2023-02-25T20:52:39.630Z,88.70
2023-02-25T20:55:09.664Z,88.80
2023-02-25T20:57:38.952Z,89.10
2023-02-25T21:00:10.123Z,89.10
2023-02-25T21:02:39.341Z,89.30
2023-02-25T21:05:08.969Z,89.30
2023-02-25T21:07:38.215Z,89.50
2023-02-25T21:10:08.163Z,89.60
2023-02-25T21:12:37.386Z,89.40
2023-02-25T21:15:07.118Z,89.30
2023-02-25T21:17:36.478Z,89.90
2023-02-25T21:20:07.812Z,89.70
2023-02-25T21:22:37.726Z,89.70
2023-02-25T21:25:07.220Z,89.80
2023-02-25T21:27:36.439Z,89.70
2023-02-25T21:30:06.546Z,90.00
2023-02-25T21:32:36.157Z,90.10
2023-02-25T21:35:05.800Z,90.20
2023-02-25T21:37:35.028Z,90.10
2023-02-25T21:40:05.151Z,90.40
2023-02-25T21:42:35.610Z,90.50
2023-02-25T21:45:05.129Z,90.40
2023-02-25T21:47:34.310Z,90.50
2023-02-25T21:50:03.618Z,90.70
2023-02-25T21:52:32.770Z,90.50
2023-02-25T21:55:01.959Z,90.60
2023-02-25T21:57:31.527Z,90.50
2023-02-25T22:00:02.712Z,90.60
2023-02-25T22:02:33.029Z,90.50
2023-02-25T22:05:02.384Z,90.60
2023-02-25T22:07:31.846Z,90.60
2023-02-25T22:10:01.597Z,90.80
2023-02-25T22:12:30.940Z,90.90
2023-02-25T22:15:00.162Z,91.00
2023-02-25T22:17:29.651Z,90.90
2023-02-25T22:19:59.552Z,91.00
2023-02-25T22:22:28.760Z,91.00
2023-02-25T22:24:57.989Z,91.00
2023-02-25T22:27:27.407Z,91.00
2023-02-25T22:29:56.634Z,91.00
2023-02-25T22:32:27.005Z,91.10
2023-02-25T22:34:56.084Z,90.90
2023-02-25T22:37:25.888Z,91.00
2023-02-25T22:39:55.010Z,91.10
2023-02-25T22:42:24.669Z,91.20
2023-02-25T22:44:53.747Z,91.00
2023-02-25T22:47:22.912Z,91.30
2023-02-25T22:49:52.028Z,91.20
2023-02-25T22:52:21.170Z,91.30
2023-02-25T22:54:50.331Z,91.40
2023-02-25T22:57:19.468Z,91.40
2023-02-25T22:59:49.446Z,91.30
2023-02-25T23:02:18.599Z,91.50
2023-02-25T23:04:47.747Z,91.50
2023-02-25T23:07:16.872Z,91.60
2023-02-25T23:09:46.844Z,91.80
2023-02-25T23:12:17.683Z,91.50
2023-02-25T23:14:46.892Z,91.50
2023-02-25T23:17:15.971Z,91.40
2023-02-25T23:19:45.077Z,91.40
2023-02-25T23:22:22.408Z,91.30
2023-02-25T23:24:51.535Z,91.30
2023-02-25T23:27:20.572Z,91.30
2023-02-25T23:29:50.505Z,91.30
2023-02-25T23:32:20.370Z,91.20
2023-02-25T23:34:50.531Z,91.20
2023-02-25T23:37:19.808Z,91.20
2023-02-25T23:39:49.063Z,91.20
2023-02-25T23:42:18.282Z,91.20
2023-02-25T23:44:47.457Z,91.20
2023-02-25T23:47:16.875Z,91.20
2023-02-25T23:49:46.212Z,91.30
2023-02-25T23:52:15.515Z,91.00
2023-02-25T23:54:44.717Z,90.80
2023-02-25T23:57:13.893Z,90.80
2023-02-25T23:59:43.898Z,90.80
